sensor_id;sensor_type;location;lat;lon;timestamp;pressure;altitude;pressure_sealevel;temperature;humidity
40245;BME280;25963;42.694;23.600;2023-05-07T00:01:32;95402.44;;;9.98;100.00
40245;BME280;25963;42.694;23.600;2023-05-07T00:03:57;95405.47;;;9.95;100.00
40245;BME280;25963;42.694;23.600;2023-05-07T00:06:22;95432.94;;;10.25;100.00
40245;BME280;25963;42.694;23.600;2023-05-07T00:08:48;95425.72;;;10.07;100.00
40245;BME280;25963;42.694;23.600;2023-05-07T00:11:13;95422.03;;;10.22;100.00
40245;BME280;25963;42.694;23.600;2023-05-07T00:13:39;95411.69;;;10.20;100.00
40245;BME280;25963;42.694;23.600;2023-05-07T00:16:04;95415.59;;;10.04;100.00
40245;BME280;25963;42.694;23.600;2023-05-07T00:18:30;95411.19;;;9.85;100.00
40245;BME280;25963;42.694;23.600;2023-05-07T00:20:56;95421.72;;;9.85;100.00
40245;BME280;25963;42.694;23.600;2023-05-07T00:23:22;95430.63;;;9.84;100.00
40245;BME280;25963;42.694;23.600;2023-05-07T00:25:47;95406.75;;;9.66;100.00
40245;BME280;25963;42.694;23.600;2023-05-07T00:28:13;95420.91;;;9.78;100.00
40245;BME280;25963;42.694;23.600;2023-05-07T00:30:38;95415.44;;;9.86;100.00
40245;BME280;25963;42.694;23.600;2023-05-07T00:33:04;95434.28;;;9.96;100.00
40245;BME280;25963;42.694;23.600;2023-05-07T00:35:29;95416.81;;;9.95;100.00
40245;BME280;25963;42.694;23.600;2023-05-07T00:37:55;95443.16;;;10.02;100.00
40245;BME280;25963;42.694;23.600;2023-05-07T00:40:21;95454.13;;;9.92;100.00
40245;BME280;25963;42.694;23.600;2023-05-07T00:42:46;95423.97;;;9.81;100.00
40245;BME280;25963;42.694;23.600;2023-05-07T00:45:15;95432.28;;;9.85;100.00
40245;BME280;25963;42.694;23.600;2023-05-07T00:47:42;95443.41;;;9.94;100.00
40245;BME280;25963;42.694;23.600;2023-05-07T00:50:08;95467.06;;;10.14;100.00
40245;BME280;25963;42.694;23.600;2023-05-07T00:52:37;95436.31;;;9.94;100.00
40245;BME280;25963;42.694;23.600;2023-05-07T00:55:05;95446.00;;;10.07;100.00
40245;BME280;25963;42.694;23.600;2023-05-07T00:57:41;95444.72;;;10.23;100.00
40245;BME280;25963;42.694;23.600;2023-05-07T01:00:08;95445.34;;;10.25;100.00
40245;BME280;25963;42.694;23.600;2023-05-07T01:02:35;95463.38;;;10.41;100.00
40245;BME280;25963;42.694;23.600;2023-05-07T01:05:02;95462.38;;;10.22;100.00
40245;BME280;25963;42.694;23.600;2023-05-07T01:07:29;95458.97;;;10.15;100.00
40245;BME280;25963;42.694;23.600;2023-05-07T01:09:55;95453.06;;;10.13;100.00
40245;BME280;25963;42.694;23.600;2023-05-07T01:12:21;95429.41;;;9.87;100.00
40245;BME280;25963;42.694;23.600;2023-05-07T01:14:47;95471.38;;;9.88;100.00
40245;BME280;25963;42.694;23.600;2023-05-07T01:17:15;95455.16;;;9.78;100.00
40245;BME280;25963;42.694;23.600;2023-05-07T01:19:41;95467.75;;;9.49;100.00
40245;BME280;25963;42.694;23.600;2023-05-07T01:22:10;95481.72;;;9.83;100.00
40245;BME280;25963;42.694;23.600;2023-05-07T01:24:37;95453.16;;;9.80;100.00
40245;BME280;25963;42.694;23.600;2023-05-07T01:27:03;95457.78;;;9.91;100.00
40245;BME280;25963;42.694;23.600;2023-05-07T01:29:29;95444.00;;;9.89;100.00
40245;BME280;25963;42.694;23.600;2023-05-07T01:31:59;95456.34;;;10.09;100.00
40245;BME280;25963;42.694;23.600;2023-05-07T01:34:26;95454.28;;;10.11;100.00
40245;BME280;25963;42.694;23.600;2023-05-07T01:36:53;95439.34;;;9.91;100.00
40245;BME280;25963;42.694;23.600;2023-05-07T01:39:23;95431.44;;;9.91;100.00
40245;BME280;25963;42.694;23.600;2023-05-07T01:41:49;95453.28;;;10.05;100.00
40245;BME280;25963;42.694;23.600;2023-05-07T01:44:16;95443.59;;;9.92;100.00
40245;BME280;25963;42.694;23.600;2023-05-07T01:46:42;95465.50;;;9.86;100.00
40245;BME280;25963;42.694;23.600;2023-05-07T01:49:08;95452.56;;;9.58;100.00
40245;BME280;25963;42.694;23.600;2023-05-07T01:51:34;95466.09;;;9.88;100.00
40245;BME280;25963;42.694;23.600;2023-05-07T01:54:00;95461.44;;;9.97;100.00
40245;BME280;25963;42.694;23.600;2023-05-07T01:56:26;95467.06;;;10.07;100.00
40245;BME280;25963;42.694;23.600;2023-05-07T01:58:51;95450.47;;;10.06;100.00
40245;BME280;25963;42.694;23.600;2023-05-07T02:01:17;95420.69;;;9.93;100.00
40245;BME280;25963;42.694;23.600;2023-05-07T02:03:43;95433.19;;;10.11;100.00
40245;BME280;25963;42.694;23.600;2023-05-07T02:06:09;95414.44;;;9.87;100.00
40245;BME280;25963;42.694;23.600;2023-05-07T02:08:35;95425.75;;;9.94;100.00
40245;BME280;25963;42.694;23.600;2023-05-07T02:11:01;95438.75;;;9.82;100.00
40245;BME280;25963;42.694;23.600;2023-05-07T02:13:32;95421.69;;;9.98;100.00
40245;BME280;25963;42.694;23.600;2023-05-07T02:15:58;95437.41;;;10.25;100.00
40245;BME280;25963;42.694;23.600;2023-05-07T02:18:23;95411.56;;;9.95;100.00
40245;BME280;25963;42.694;23.600;2023-05-07T02:20:49;95417.59;;;10.09;100.00
40245;BME280;25963;42.694;23.600;2023-05-07T02:23:14;95434.44;;;10.08;100.00
40245;BME280;25963;42.694;23.600;2023-05-07T02:25:40;95395.19;;;9.80;100.00
40245;BME280;25963;42.694;23.600;2023-05-07T02:28:05;95412.44;;;9.56;100.00
40245;BME280;25963;42.694;23.600;2023-05-07T02:30:31;95431.31;;;9.40;100.00
40245;BME280;25963;42.694;23.600;2023-05-07T02:32:57;95423.41;;;9.46;100.00
40245;BME280;25963;42.694;23.600;2023-05-07T02:35:24;95407.00;;;9.31;100.00
40245;BME280;25963;42.694;23.600;2023-05-07T02:37:49;95400.31;;;9.35;100.00
40245;BME280;25963;42.694;23.600;2023-05-07T02:40:15;95425.03;;;9.60;100.00
40245;BME280;25963;42.694;23.600;2023-05-07T02:42:40;95404.75;;;9.48;100.00
40245;BME280;25963;42.694;23.600;2023-05-07T02:45:06;95421.34;;;9.62;100.00
40245;BME280;25963;42.694;23.600;2023-05-07T02:47:32;95415.06;;;9.63;100.00
40245;BME280;25963;42.694;23.600;2023-05-07T02:49:57;95418.31;;;9.65;100.00
40245;BME280;25963;42.694;23.600;2023-05-07T02:52:23;95421.56;;;9.67;100.00
40245;BME280;25963;42.694;23.600;2023-05-07T02:54:48;95418.28;;;9.71;100.00
40245;BME280;25963;42.694;23.600;2023-05-07T02:57:14;95396.25;;;9.59;100.00
40245;BME280;25963;42.694;23.600;2023-05-07T02:59:39;95438.78;;;9.76;100.00
40245;BME280;25963;42.694;23.600;2023-05-07T03:02:05;95415.72;;;9.51;100.00
40245;BME280;25963;42.694;23.600;2023-05-07T03:04:30;95417.53;;;9.57;100.00
40245;BME280;25963;42.694;23.600;2023-05-07T03:06:56;95403.72;;;9.69;100.00
40245;BME280;25963;42.694;23.600;2023-05-07T03:09:21;95402.69;;;9.63;100.00
40245;BME280;25963;42.694;23.600;2023-05-07T03:11:47;95412.84;;;9.73;100.00
40245;BME280;25963;42.694;23.600;2023-05-07T03:14:12;95430.63;;;9.91;100.00
40245;BME280;25963;42.694;23.600;2023-05-07T03:16:38;95422.56;;;9.66;100.00
40245;BME280;25963;42.694;23.600;2023-05-07T03:19:03;95414.06;;;9.50;100.00
40245;BME280;25963;42.694;23.600;2023-05-07T03:21:29;95417.31;;;9.59;100.00
40245;BME280;25963;42.694;23.600;2023-05-07T03:23:55;95417.28;;;9.66;100.00
40245;BME280;25963;42.694;23.600;2023-05-07T03:26:21;95413.66;;;9.53;100.00
40245;BME280;25963;42.694;23.600;2023-05-07T03:28:46;95402.53;;;9.51;100.00
40245;BME280;25963;42.694;23.600;2023-05-07T03:31:12;95419.72;;;9.54;100.00
40245;BME280;25963;42.694;23.600;2023-05-07T03:33:50;95426.63;;;9.68;100.00
40245;BME280;25963;42.694;23.600;2023-05-07T03:36:16;95416.72;;;9.64;100.00
40245;BME280;25963;42.694;23.600;2023-05-07T03:38:41;95399.91;;;9.38;100.00
40245;BME280;25963;42.694;23.600;2023-05-07T03:41:07;95406.38;;;9.49;100.00
40245;BME280;25963;42.694;23.600;2023-05-07T03:43:32;95435.72;;;9.86;100.00
40245;BME280;25963;42.694;23.600;2023-05-07T03:45:57;95435.53;;;9.87;100.00
40245;BME280;25963;42.694;23.600;2023-05-07T03:48:23;95432.63;;;9.95;100.00
40245;BME280;25963;42.694;23.600;2023-05-07T03:50:48;95424.38;;;9.78;100.00
40245;BME280;25963;42.694;23.600;2023-05-07T03:53:14;95439.75;;;9.88;100.00
40245;BME280;25963;42.694;23.600;2023-05-07T03:55:39;95426.59;;;9.88;100.00
40245;BME280;25963;42.694;23.600;2023-05-07T03:58:05;95441.94;;;10.11;100.00
40245;BME280;25963;42.694;23.600;2023-05-07T04:00:30;95438.25;;;10.19;100.00
40245;BME280;25963;42.694;23.600;2023-05-07T04:02:59;95439.44;;;10.36;100.00
40245;BME280;25963;42.694;23.600;2023-05-07T04:05:24;95420.63;;;10.71;100.00
40245;BME280;25963;42.694;23.600;2023-05-07T04:07:50;95426.75;;;10.96;100.00
40245;BME280;25963;42.694;23.600;2023-05-07T04:10:15;95438.06;;;11.35;100.00
40245;BME280;25963;42.694;23.600;2023-05-07T04:12:41;95449.97;;;11.95;100.00
40245;BME280;25963;42.694;23.600;2023-05-07T04:15:07;95441.19;;;12.38;100.00
40245;BME280;25963;42.694;23.600;2023-05-07T04:17:32;95435.88;;;13.16;100.00
40245;BME280;25963;42.694;23.600;2023-05-07T04:20:02;95469.06;;;14.20;95.23
40245;BME280;25963;42.694;23.600;2023-05-07T04:22:27;95458.94;;;15.38;85.07
40245;BME280;25963;42.694;23.600;2023-05-07T04:24:53;95460.88;;;16.49;77.06
40245;BME280;25963;42.694;23.600;2023-05-07T04:27:44;95482.91;;;17.32;72.20
40245;BME280;25963;42.694;23.600;2023-05-07T04:30:10;95481.00;;;18.24;67.33
40245;BME280;25963;42.694;23.600;2023-05-07T04:32:35;95454.13;;;18.99;63.57
40245;BME280;25963;42.694;23.600;2023-05-07T04:35:02;95451.59;;;19.70;60.38
40245;BME280;25963;42.694;23.600;2023-05-07T04:37:28;95460.06;;;20.54;57.65
40245;BME280;25963;42.694;23.600;2023-05-07T04:39:53;95459.06;;;21.10;55.10
40245;BME280;25963;42.694;23.600;2023-05-07T04:42:27;95443.84;;;21.45;54.33
40245;BME280;25963;42.694;23.600;2023-05-07T04:44:53;95448.72;;;22.06;52.82
40245;BME280;25963;42.694;23.600;2023-05-07T04:47:19;95445.19;;;22.64;50.63
40245;BME280;25963;42.694;23.600;2023-05-07T04:49:44;95450.66;;;22.83;50.71
40245;BME280;25963;42.694;23.600;2023-05-07T04:52:10;95453.34;;;23.26;49.46
40245;BME280;25963;42.694;23.600;2023-05-07T04:54:35;95442.47;;;23.68;48.34
40245;BME280;25963;42.694;23.600;2023-05-07T04:57:03;95463.41;;;24.09;46.71
40245;BME280;25963;42.694;23.600;2023-05-07T04:59:28;95442.88;;;24.27;45.54
40245;BME280;25963;42.694;23.600;2023-05-07T05:01:54;95449.41;;;24.68;45.07
40245;BME280;25963;42.694;23.600;2023-05-07T05:04:19;95453.53;;;24.65;44.40
40245;BME280;25963;42.694;23.600;2023-05-07T05:06:45;95441.31;;;23.75;45.79
40245;BME280;25963;42.694;23.600;2023-05-07T05:09:10;95443.94;;;23.80;47.11
40245;BME280;25963;42.694;23.600;2023-05-07T05:11:36;95440.00;;;23.15;47.57
40245;BME280;25963;42.694;23.600;2023-05-07T05:14:01;95442.69;;;23.72;47.65
40245;BME280;25963;42.694;23.600;2023-05-07T05:16:45;95450.78;;;24.05;46.42
40245;BME280;25963;42.694;23.600;2023-05-07T05:19:10;95451.31;;;24.07;45.95
40245;BME280;25963;42.694;23.600;2023-05-07T05:21:36;95441.06;;;24.23;46.35
40245;BME280;25963;42.694;23.600;2023-05-07T05:24:01;95433.72;;;24.42;46.09
40245;BME280;25963;42.694;23.600;2023-05-07T05:26:27;95446.03;;;24.48;46.78
40245;BME280;25963;42.694;23.600;2023-05-07T05:28:52;95440.81;;;24.79;45.76
40245;BME280;25963;42.694;23.600;2023-05-07T05:31:18;95461.91;;;24.77;42.04
40245;BME280;25963;42.694;23.600;2023-05-07T05:33:43;95430.28;;;24.23;43.56
40245;BME280;25963;42.694;23.600;2023-05-07T05:36:09;95469.47;;;24.62;43.82
40245;BME280;25963;42.694;23.600;2023-05-07T05:38:35;95449.59;;;24.11;44.68
40245;BME280;25963;42.694;23.600;2023-05-07T05:41:01;95460.69;;;24.42;44.70
40245;BME280;25963;42.694;23.600;2023-05-07T05:43:26;95465.16;;;24.00;44.70
40245;BME280;25963;42.694;23.600;2023-05-07T05:45:52;95457.59;;;24.02;46.71
40245;BME280;25963;42.694;23.600;2023-05-07T05:48:17;95453.19;;;23.36;45.58
40245;BME280;25963;42.694;23.600;2023-05-07T05:50:43;95445.50;;;24.00;45.56
40245;BME280;25963;42.694;23.600;2023-05-07T05:53:08;95446.44;;;24.69;43.49
40245;BME280;25963;42.694;23.600;2023-05-07T05:55:34;95441.88;;;24.37;43.92
40245;BME280;25963;42.694;23.600;2023-05-07T05:58:02;95459.69;;;24.93;42.53
40245;BME280;25963;42.694;23.600;2023-05-07T06:00:28;95451.28;;;24.40;41.23
40245;BME280;25963;42.694;23.600;2023-05-07T06:02:54;95460.44;;;24.25;41.99
40245;BME280;25963;42.694;23.600;2023-05-07T06:05:20;95457.81;;;24.66;41.59
40245;BME280;25963;42.694;23.600;2023-05-07T06:07:46;95455.50;;;24.87;42.06
40245;BME280;25963;42.694;23.600;2023-05-07T06:10:11;95469.22;;;24.77;40.98
40245;BME280;25963;42.694;23.600;2023-05-07T06:12:37;95451.59;;;24.79;41.22
40245;BME280;25963;42.694;23.600;2023-05-07T06:15:03;95461.47;;;25.12;41.65
40245;BME280;25963;42.694;23.600;2023-05-07T06:17:28;95450.22;;;24.96;43.05
40245;BME280;25963;42.694;23.600;2023-05-07T06:19:54;95453.13;;;25.13;41.87
40245;BME280;25963;42.694;23.600;2023-05-07T06:22:19;95462.72;;;24.78;41.31
40245;BME280;25963;42.694;23.600;2023-05-07T06:24:44;95461.81;;;24.08;42.99
40245;BME280;25963;42.694;23.600;2023-05-07T06:27:10;95446.91;;;24.44;47.39
40245;BME280;25963;42.694;23.600;2023-05-07T06:29:36;95457.31;;;24.50;46.07
40245;BME280;25963;42.694;23.600;2023-05-07T06:32:12;95451.50;;;24.43;43.88
40245;BME280;25963;42.694;23.600;2023-05-07T06:34:38;95453.59;;;24.74;43.95
40245;BME280;25963;42.694;23.600;2023-05-07T06:37:03;95442.13;;;24.82;43.25
40245;BME280;25963;42.694;23.600;2023-05-07T06:39:29;95447.47;;;25.10;47.37
40245;BME280;25963;42.694;23.600;2023-05-07T06:41:54;95427.41;;;24.88;44.60
40245;BME280;25963;42.694;23.600;2023-05-07T06:44:20;95442.72;;;24.79;42.05
40245;BME280;25963;42.694;23.600;2023-05-07T06:46:45;95445.69;;;24.36;43.69
40245;BME280;25963;42.694;23.600;2023-05-07T06:49:12;95428.13;;;24.38;47.59
40245;BME280;25963;42.694;23.600;2023-05-07T06:51:38;95429.94;;;24.57;46.42
40245;BME280;25963;42.694;23.600;2023-05-07T06:54:03;95416.75;;;24.69;43.98
40245;BME280;25963;42.694;23.600;2023-05-07T06:56:30;95444.50;;;24.97;45.73
40245;BME280;25963;42.694;23.600;2023-05-07T06:58:55;95424.34;;;24.81;47.96
40245;BME280;25963;42.694;23.600;2023-05-07T07:01:21;95442.25;;;24.17;47.27
40245;BME280;25963;42.694;23.600;2023-05-07T07:03:46;95421.09;;;24.24;51.13
40245;BME280;25963;42.694;23.600;2023-05-07T07:06:12;95439.19;;;24.23;44.03
40245;BME280;25963;42.694;23.600;2023-05-07T07:08:37;95416.13;;;23.84;47.47
40245;BME280;25963;42.694;23.600;2023-05-07T07:11:04;95422.59;;;23.83;47.58
40245;BME280;25963;42.694;23.600;2023-05-07T07:13:30;95434.97;;;24.17;50.85
40245;BME280;25963;42.694;23.600;2023-05-07T07:15:55;95416.22;;;23.93;45.99
40245;BME280;25963;42.694;23.600;2023-05-07T07:18:21;95417.00;;;23.80;46.03
40245;BME280;25963;42.694;23.600;2023-05-07T07:20:46;95422.47;;;24.07;50.86
40245;BME280;25963;42.694;23.600;2023-05-07T07:23:12;95413.53;;;23.93;49.23
40245;BME280;25963;42.694;23.600;2023-05-07T07:25:37;95431.44;;;23.70;49.86
40245;BME280;25963;42.694;23.600;2023-05-07T07:28:03;95425.84;;;23.99;48.83
40245;BME280;25963;42.694;23.600;2023-05-07T07:30:28;95415.88;;;24.13;49.21
40245;BME280;25963;42.694;23.600;2023-05-07T07:32:54;95415.78;;;24.19;46.39
40245;BME280;25963;42.694;23.600;2023-05-07T07:35:20;95410.75;;;23.98;48.70
40245;BME280;25963;42.694;23.600;2023-05-07T07:37:47;95398.94;;;24.41;55.80
40245;BME280;25963;42.694;23.600;2023-05-07T07:40:15;95430.22;;;24.42;48.45
40245;BME280;25963;42.694;23.600;2023-05-07T07:42:40;95413.56;;;24.53;50.13
40245;BME280;25963;42.694;23.600;2023-05-07T07:45:06;95416.34;;;24.76;47.83
40245;BME280;25963;42.694;23.600;2023-05-07T07:47:32;95402.22;;;23.77;45.79
40245;BME280;25963;42.694;23.600;2023-05-07T07:49:57;95411.13;;;24.24;50.70
40245;BME280;25963;42.694;23.600;2023-05-07T07:52:22;95416.53;;;24.38;50.09
40245;BME280;25963;42.694;23.600;2023-05-07T07:54:48;95419.72;;;24.40;47.81
40245;BME280;25963;42.694;23.600;2023-05-07T07:57:13;95415.59;;;24.29;50.45
40245;BME280;25963;42.694;23.600;2023-05-07T07:59:39;95414.72;;;24.33;48.10
40245;BME280;25963;42.694;23.600;2023-05-07T08:02:05;95431.03;;;24.70;50.78
40245;BME280;25963;42.694;23.600;2023-05-07T08:04:30;95404.66;;;24.67;53.17
40245;BME280;25963;42.694;23.600;2023-05-07T08:06:58;95411.13;;;25.07;49.47
40245;BME280;25963;42.694;23.600;2023-05-07T08:09:23;95419.31;;;25.16;50.62
40245;BME280;25963;42.694;23.600;2023-05-07T08:11:49;95424.63;;;24.79;46.55
40245;BME280;25963;42.694;23.600;2023-05-07T08:14:14;95402.09;;;25.12;49.99
40245;BME280;25963;42.694;23.600;2023-05-07T08:16:41;95411.84;;;24.85;44.85
40245;BME280;25963;42.694;23.600;2023-05-07T08:19:06;95397.66;;;24.38;42.33
40245;BME280;25963;42.694;23.600;2023-05-07T08:21:32;95412.22;;;25.06;45.87
40245;BME280;25963;42.694;23.600;2023-05-07T08:23:57;95399.47;;;25.34;43.75
40245;BME280;25963;42.694;23.600;2023-05-07T08:26:23;95408.66;;;25.33;43.45
40245;BME280;25963;42.694;23.600;2023-05-07T08:28:48;95405.56;;;24.90;45.48
40245;BME280;25963;42.694;23.600;2023-05-07T08:31:13;95386.63;;;25.17;44.07
40245;BME280;25963;42.694;23.600;2023-05-07T08:33:39;95416.06;;;25.27;45.72
40245;BME280;25963;42.694;23.600;2023-05-07T08:36:05;95393.69;;;25.27;53.33
40245;BME280;25963;42.694;23.600;2023-05-07T08:38:31;95404.47;;;25.27;43.39
40245;BME280;25963;42.694;23.600;2023-05-07T08:40:56;95379.84;;;25.87;44.89
40245;BME280;25963;42.694;23.600;2023-05-07T08:43:26;95387.66;;;26.20;45.04
40245;BME280;25963;42.694;23.600;2023-05-07T08:45:58;95403.31;;;26.01;37.04
40245;BME280;25963;42.694;23.600;2023-05-07T08:48:29;95356.81;;;25.67;37.35
40245;BME280;25963;42.694;23.600;2023-05-07T08:50:58;95400.28;;;24.57;38.95
40245;BME280;25963;42.694;23.600;2023-05-07T08:53:23;95380.19;;;24.77;39.90
40245;BME280;25963;42.694;23.600;2023-05-07T08:55:49;95372.78;;;25.33;40.84
40245;BME280;25963;42.694;23.600;2023-05-07T08:58:14;95378.50;;;25.76;41.19
40245;BME280;25963;42.694;23.600;2023-05-07T09:00:41;95381.59;;;25.69;39.81
40245;BME280;25963;42.694;23.600;2023-05-07T09:03:07;95373.03;;;26.21;43.15
40245;BME280;25963;42.694;23.600;2023-05-07T09:05:33;95379.75;;;26.32;42.00
40245;BME280;25963;42.694;23.600;2023-05-07T09:08:06;95383.88;;;26.61;35.87
40245;BME280;25963;42.694;23.600;2023-05-07T09:10:33;95380.69;;;26.68;41.04
40245;BME280;25963;42.694;23.600;2023-05-07T09:12:58;95379.72;;;25.70;40.42
40245;BME280;25963;42.694;23.600;2023-05-07T09:15:24;95363.09;;;26.39;45.12
40245;BME280;25963;42.694;23.600;2023-05-07T09:17:50;95367.97;;;26.77;38.52
40245;BME280;25963;42.694;23.600;2023-05-07T09:20:16;95364.44;;;26.59;39.29
40245;BME280;25963;42.694;23.600;2023-05-07T09:22:44;95372.78;;;26.89;35.85
40245;BME280;25963;42.694;23.600;2023-05-07T09:25:09;95348.94;;;27.08;39.09
40245;BME280;25963;42.694;23.600;2023-05-07T09:27:35;95342.09;;;27.37;37.22
40245;BME280;25963;42.694;23.600;2023-05-07T09:30:07;95339.72;;;27.52;36.26
40245;BME280;25963;42.694;23.600;2023-05-07T09:32:36;95342.91;;;27.20;36.11
40245;BME280;25963;42.694;23.600;2023-05-07T09:35:06;95338.13;;;27.34;33.14
40245;BME280;25963;42.694;23.600;2023-05-07T09:37:40;95339.09;;;27.38;31.91
40245;BME280;25963;42.694;23.600;2023-05-07T09:40:06;95321.06;;;27.07;36.37
40245;BME280;25963;42.694;23.600;2023-05-07T09:42:32;95321.41;;;27.23;36.71
40245;BME280;25963;42.694;23.600;2023-05-07T09:44:59;95349.19;;;26.63;32.13
40245;BME280;25963;42.694;23.600;2023-05-07T09:47:24;95333.81;;;27.42;34.24
40245;BME280;25963;42.694;23.600;2023-05-07T09:49:56;95342.38;;;27.79;35.87
40245;BME280;25963;42.694;23.600;2023-05-07T09:52:23;95350.81;;;26.81;31.25
40245;BME280;25963;42.694;23.600;2023-05-07T09:54:50;95325.38;;;27.43;38.06
40245;BME280;25963;42.694;23.600;2023-05-07T09:57:16;95325.97;;;27.66;36.05
40245;BME280;25963;42.694;23.600;2023-05-07T09:59:45;95320.00;;;27.99;35.17
40245;BME280;25963;42.694;23.600;2023-05-07T10:02:13;95326.59;;;27.89;34.09
40245;BME280;25963;42.694;23.600;2023-05-07T10:04:40;95325.81;;;28.27;37.59
40245;BME280;25963;42.694;23.600;2023-05-07T10:07:06;95314.88;;;26.98;29.64
40245;BME280;25963;42.694;23.600;2023-05-07T10:09:33;95324.53;;;27.69;34.50
40245;BME280;25963;42.694;23.600;2023-05-07T10:12:04;95308.28;;;28.25;33.24
40245;BME280;25963;42.694;23.600;2023-05-07T10:14:30;95329.81;;;28.59;33.19
40245;BME280;25963;42.694;23.600;2023-05-07T10:16:56;95313.53;;;28.59;35.39
40245;BME280;25963;42.694;23.600;2023-05-07T10:19:22;95320.13;;;27.47;30.26
40245;BME280;25963;42.694;23.600;2023-05-07T10:21:54;95327.09;;;27.65;29.54
40245;BME280;25963;42.694;23.600;2023-05-07T10:24:26;95305.72;;;27.64;34.26
40245;BME280;25963;42.694;23.600;2023-05-07T10:26:55;95303.75;;;27.99;32.51
40245;BME280;25963;42.694;23.600;2023-05-07T10:34:43;95297.66;;;28.02;32.91
40245;BME280;25963;42.694;23.600;2023-05-07T10:37:11;95292.09;;;28.37;30.99
40245;BME280;25963;42.694;23.600;2023-05-07T10:39:37;95276.16;;;28.86;29.18
40245;BME280;25963;42.694;23.600;2023-05-07T10:42:13;95292.63;;;28.30;28.17
40245;BME280;25963;42.694;23.600;2023-05-07T10:44:39;95279.00;;;27.10;29.60
40245;BME280;25963;42.694;23.600;2023-05-07T10:47:09;95280.91;;;27.01;28.35
40245;BME280;25963;42.694;23.600;2023-05-07T10:52:19;95293.50;;;26.88;28.84
40245;BME280;25963;42.694;23.600;2023-05-07T10:54:46;95274.50;;;26.45;30.19
40245;BME280;25963;42.694;23.600;2023-05-07T10:57:33;95288.56;;;26.81;30.70
40245;BME280;25963;42.694;23.600;2023-05-07T11:05:30;95267.88;;;27.03;37.18
40245;BME280;25963;42.694;23.600;2023-05-07T11:08:03;95284.41;;;27.45;34.96
40245;BME280;25963;42.694;23.600;2023-05-07T11:10:54;95272.16;;;27.47;30.69
40245;BME280;25963;42.694;23.600;2023-05-07T11:13:43;95284.03;;;27.72;35.31
40245;BME280;25963;42.694;23.600;2023-05-07T11:16:23;95264.84;;;27.39;29.98
40245;BME280;25963;42.694;23.600;2023-05-07T11:18:53;95263.59;;;27.11;29.53
40245;BME280;25963;42.694;23.600;2023-05-07T11:21:39;95262.94;;;27.05;28.83
40245;BME280;25963;42.694;23.600;2023-05-07T11:24:06;95286.81;;;26.77;30.82
40245;BME280;25963;42.694;23.600;2023-05-07T11:26:50;95275.03;;;26.73;30.41
40245;BME280;25963;42.694;23.600;2023-05-07T11:29:18;95268.34;;;26.96;31.11
40245;BME280;25963;42.694;23.600;2023-05-07T11:31:48;95267.09;;;27.28;32.03
40245;BME280;25963;42.694;23.600;2023-05-07T11:34:15;95272.00;;;26.92;28.36
40245;BME280;25963;42.694;23.600;2023-05-07T11:36:46;95260.69;;;27.33;32.26
40245;BME280;25963;42.694;23.600;2023-05-07T11:39:26;95266.53;;;28.08;32.02
40245;BME280;25963;42.694;23.600;2023-05-07T11:41:52;95254.34;;;27.76;27.63
40245;BME280;25963;42.694;23.600;2023-05-07T11:44:17;95253.03;;;27.99;26.97
40245;BME280;25963;42.694;23.600;2023-05-07T11:46:43;95246.81;;;28.29;28.56
40245;BME280;25963;42.694;23.600;2023-05-07T11:49:10;95248.41;;;28.59;30.83
40245;BME280;25963;42.694;23.600;2023-05-07T11:51:35;95252.19;;;28.67;29.82
40245;BME280;25963;42.694;23.600;2023-05-07T11:54:03;95248.03;;;28.40;28.86
40245;BME280;25963;42.694;23.600;2023-05-07T11:56:29;95255.84;;;28.41;27.50
40245;BME280;25963;42.694;23.600;2023-05-07T11:58:59;95250.66;;;28.28;28.36
40245;BME280;25963;42.694;23.600;2023-05-07T12:01:24;95254.56;;;28.68;28.16
40245;BME280;25963;42.694;23.600;2023-05-07T12:03:50;95239.22;;;28.94;26.83
40245;BME280;25963;42.694;23.600;2023-05-07T12:06:16;95264.63;;;28.09;27.98
40245;BME280;25963;42.694;23.600;2023-05-07T12:08:43;95248.22;;;28.05;28.88
40245;BME280;25963;42.694;23.600;2023-05-07T12:11:14;95242.41;;;27.86;28.57
40245;BME280;25963;42.694;23.600;2023-05-07T12:13:41;95242.88;;;27.32;25.74
40245;BME280;25963;42.694;23.600;2023-05-07T12:16:07;95251.34;;;27.77;27.78
40245;BME280;25963;42.694;23.600;2023-05-07T12:18:34;95234.38;;;27.51;26.98
40245;BME280;25963;42.694;23.600;2023-05-07T12:21:00;95243.81;;;27.27;28.51
40245;BME280;25963;42.694;23.600;2023-05-07T12:23:25;95232.44;;;27.51;29.31
40245;BME280;25963;42.694;23.600;2023-05-07T12:25:51;95239.91;;;28.10;30.07
40245;BME280;25963;42.694;23.600;2023-05-07T12:28:18;95241.22;;;28.04;26.29
40245;BME280;25963;42.694;23.600;2023-05-07T12:30:45;95226.25;;;27.51;27.13
40245;BME280;25963;42.694;23.600;2023-05-07T12:33:11;95222.75;;;27.50;30.04
40245;BME280;25963;42.694;23.600;2023-05-07T12:35:41;95217.91;;;27.65;27.49
40245;BME280;25963;42.694;23.600;2023-05-07T12:38:11;95219.78;;;27.73;27.90
40245;BME280;25963;42.694;23.600;2023-05-07T12:43:03;95214.53;;;27.85;26.81
40245;BME280;25963;42.694;23.600;2023-05-07T12:45:28;95203.38;;;28.08;25.91
40245;BME280;25963;42.694;23.600;2023-05-07T12:47:54;95214.16;;;27.95;25.54
40245;BME280;25963;42.694;23.600;2023-05-07T12:50:19;95210.84;;;27.81;25.37
40245;BME280;25963;42.694;23.600;2023-05-07T12:52:47;95208.63;;;27.74;27.37
40245;BME280;25963;42.694;23.600;2023-05-07T12:55:16;95207.09;;;27.65;28.21
40245;BME280;25963;42.694;23.600;2023-05-07T12:57:45;95199.16;;;27.51;27.06
40245;BME280;25963;42.694;23.600;2023-05-07T13:00:13;95187.69;;;27.45;28.58
40245;BME280;25963;42.694;23.600;2023-05-07T13:02:40;95196.94;;;27.53;28.73